• Join FlightAware (Why Join?)
  • Login
  • US Flag 
04:33PM EST


 

Airport Tracker/Info


-or-


 

Live Flight TrackerFlight Track Log ✈ SWA706 ✈ 11-May-2013 ✈ KABQ - KPDX

Flight Track Log - Related Links

Times and Time Zones

All times are in EDT time to prevent confusion due to time zone crossing. See the SWA706 flight status page for this flight to view local times or setup timezone preferences in your user account.

Time Position Orientation Groundspeed Altitude Reporting Facility
EDT Latitude Longitude Course Direction KTS MPH feet Rate Location/Type
03:11PM 35.0447 -106.5739 350° North 173 199 6,400  Level Albuquerque Center
03:11PM 35.0489 -106.5664 56° Northeast 147 169 6,600 900 Climbing Albuquerque Center
03:12PM 35.0967 -106.5900 338° Northwest 225 259 7,600 2,400 Climbing Albuquerque Center
03:13PM 35.1597 -106.6583 318° Northwest 246 283 11,500 2,940 Climbing Albuquerque Center
03:15PM 35.2292 -106.6969 336° Northwest 280 322 13,700 2,280 Climbing Albuquerque Center
03:16PM 35.3089 -106.7389 337° Northwest 306 352 16,200 2,580 Climbing Albuquerque Center
03:17PM 35.8510 -106.9187 350° North  Level FlightAware Approximate
03:17PM 35.3933 -106.7842 336° Northwest 326 375 19,100  Level Albuquerque Center
03:18PM 35.4819 -106.8297 337° Northwest 340 391 20,600 1,680 Climbing Albuquerque Center
03:19PM 35.5842 -106.8828 337° Northwest 388 447 22,600 2,220 Climbing Albuquerque Center
03:20PM 35.7022 -106.9472 336° Northwest 408 470 25,200 2,460 Climbing Albuquerque Center
03:21PM 35.8250 -107.0103 337° Northwest 422 486 27,700 2,040 Climbing Albuquerque Center
03:22PM 35.9303 -107.0653 337° Northwest 427 491 29,500 1,920 Climbing Albuquerque Center
03:23PM 36.0406 -107.1247 336° Northwest 429 494 31,700 1,920 Climbing Albuquerque Center
03:24PM 36.1578 -107.1861 337° Northwest 429 494 33,500 1,560 Climbing Albuquerque Center
03:25PM 36.2619 -107.2422 337° Northwest 427 491 34,900 1,200 Climbing Albuquerque Center
03:26PM 36.3847 -107.3064 337° Northwest 429 494 36,000 540 Climbing Denver Center
03:27PM 36.4878 -107.3631 336° Northwest 425 489 36,000  Level Denver Center
03:28PM 36.5892 -107.4164 337° Northwest 420 483 36,000  Level Denver Center
03:29PM 36.7094 -107.4817 336° Northwest 422 486 36,000  Level Denver Center
03:30PM 36.8122 -107.5361 337° Northwest 418 481 36,000  Level Denver Center
03:31PM 36.9319 -107.6022 336° Northwest 421 484 36,000  Level Denver Center
03:32PM 37.0331 -107.6564 337° Northwest 416 479 36,000  Level Denver Center
03:33PM 37.1519 -107.7219 336° Northwest 419 482 36,000  Level Denver Center
03:34PM 37.2697 -107.7861 337° Northwest 414 476 36,000  Level Denver Center
03:35PM 37.4039 -107.8594 337° Northwest 412 474 36,000  Level Denver Center
03:36PM 37.5214 -107.9239 336° Northwest 412 474 36,000  Level Denver Center
03:37PM 37.6222 -107.9778 337° Northwest 410 472 36,000  Level Denver Center
03:39PM 37.7233 -108.0367 335° Northwest 416 479 36,000  Level Denver Center
03:40PM 37.8417 -108.1014 337° Northwest 417 480 36,000  Level Denver Center
03:41PM 37.9422 -108.1586 336° Northwest 414 476 36,000  Level Denver Center
03:42PM 38.0611 -108.2233 337° Northwest 416 479 36,000  Level Denver Center
03:43PM 38.1589 -108.2783 336° Northwest 413 475 36,000 540 Level Denver Center
03:44PM 38.2767 -108.3456 336° Northwest 414 476 37,200 960 Climbing Denver Center
03:45PM 38.3792 -108.4031 336° Northwest 421 484 38,000 360 Climbing Denver Center
03:46PM 38.4786 -108.4597 336° Northwest 410 472 38,000  Level Denver Center
03:47PM 38.5947 -108.5264 336° Northwest 406 467 38,000  Level Denver Center
03:48PM 38.6947 -108.5831 336° Northwest 409 471 38,000  Level Denver Center
03:49PM 38.8122 -108.6497 336° Northwest 412 474 38,000  Level Denver Center
03:50PM 38.9119 -108.7078 336° Northwest 411 473 38,000  Level Denver Center
03:51PM 39.0278 -108.7750 336° Northwest 408 470 38,000  Level Denver Center
03:52PM 39.1064 -108.8747 315° West 418 481 38,000  Level Denver Center
03:53PM 39.1744 -108.9886 308° West 418 481 38,000  Level Denver Center
03:54PM 39.2522 -109.1228 307° West 419 482 38,000  Level Denver Center
03:55PM 39.3231 -109.2319 310° West 413 475 38,000  Level Denver Center
03:56PM 39.3933 -109.3408 310° West 411 473 38,000  Level Denver Center
03:57PM 39.4758 -109.4675 310° West 410 472 38,000  Level Denver Center
03:58PM 39.5461 -109.5767 310° West 410 472 38,000  Level Denver Center
03:59PM 39.6289 -109.7053 310° West 413 475 38,000  Level Denver Center
04:00PM 39.6994 -109.8147 310° West 411 473 38,000  Level Salt Lake Center
04:01PM 39.7700 -109.9253 310° West 413 475 38,000  Level Salt Lake Center
04:02PM 39.8519 -110.0536 310° West 413 475 38,000  Level Salt Lake Center
04:03PM 39.9217 -110.1614 310° West 407 468 38,000  Level Salt Lake Center
04:04PM 39.9900 -110.2706 309° West 405 466 38,000  Level Salt Lake Center
04:05PM 40.0694 -110.3972 309° West 404 465 38,000  Level Salt Lake Center
04:06PM 40.1386 -110.5072 309° West 406 467 38,000  Level Salt Lake Center
04:07PM 40.2061 -110.6158 309° West 403 464 38,000  Level Salt Lake Center
04:08PM 40.2878 -110.7439 310° West 409 471 38,000  Level Salt Lake Center
04:09PM 40.3525 -110.8500 309° West 409 471 38,000  Level Salt Lake Center
04:10PM 40.4247 -110.9658 309° West 410 472 38,000  Level Salt Lake Center
04:11PM 40.5108 -111.1067 309° West 412 474 38,000  Level Salt Lake Center
04:12PM 40.5822 -111.2228 309° West 410 472 38,000  Level Salt Lake Center
04:13PM 40.6542 -111.3392 309° West 409 471 38,000  Level Salt Lake Center
04:14PM 40.7247 -111.4550 309° West 404 465 38,000  Level Salt Lake Center
04:15PM 40.7947 -111.5711 309° West 405 466 38,000  Level Salt Lake Center
04:16PM 40.8642 -111.6886 308° West 404 465 38,000  Level Salt Lake Center
04:17PM 40.9319 -111.8108 306° West 408 470 38,000  Level Salt Lake Center
04:18PM 40.9997 -111.9389 305° West 412 474 38,000  Level Salt Lake Center
04:19PM 41.0692 -112.0606 307° West 408 470 38,000  Level Salt Lake Center
04:20PM 41.1361 -112.1822 306° West 406 467 38,000  Level Salt Lake Center
04:21PM 41.2025 -112.3022 306° West 404 465 38,000  Level Salt Lake Center
04:23PM 41.2692 -112.4239 306° West 405 466 38,000  Level Salt Lake Center
04:24PM 41.3347 -112.5433 306° West 404 465 38,000  Level Salt Lake Center
04:25PM 41.3989 -112.6622 306° West 393 452 38,000  Level Salt Lake Center
04:26PM 41.4792 -112.8075 306° West 406 467 38,000  Level Salt Lake Center
04:27PM 41.5419 -112.9281 305° West 397 457 38,000  Level Salt Lake Center
04:28PM 41.6064 -113.0483 306° West 396 456 38,000  Level Salt Lake Center
04:29PM 41.6742 -113.1706 307° West 407 468 38,000  Level Salt Lake Center
04:30PM 41.7386 -113.2925 305° West 405 466 38,000  Level Salt Lake Center
04:31PM 41.8033 -113.4142 306° West 401 461 38,000  Level Salt Lake Center
04:32PM 41.8683 -113.5358 306° West 401 461 38,000  Level Salt Lake Center
04:33PM 41.9342 -113.6619 305° West 409 471 38,000  Level Salt Lake Center
04:34PM 42.0003 -113.7881 305° West 413 475 38,000  Level Salt Lake Center
04:35PM 42.0653 -113.9147 305° West 413 475 38,000  Level Salt Lake Center
04:36PM 42.1444 -114.0644 306° West 411 473 38,000  Level Salt Lake Center
04:37PM 42.2089 -114.1897 305° West 408 470 38,000  Level Salt Lake Center
04:38PM 42.2739 -114.3183 304° West 412 474 38,000  Level Salt Lake Center
04:39PM 42.3386 -114.4419 305° West 404 465 38,000  Level Salt Lake Center
04:40PM 42.4025 -114.5694 304° West 408 470 38,000  Level Salt Lake Center
04:41PM 42.4675 -114.6947 305° West 405 466 38,000  Level Salt Lake Center
04:42PM 42.5308 -114.8225 304° West 407 468 38,000  Level Salt Lake Center
04:43PM 42.6044 -114.9686 304° West 410 472 38,000  Level Salt Lake Center
04:44PM 42.6647 -115.0892 304° West 403 464 38,000  Level Salt Lake Center
04:45PM 42.7258 -115.2103 305° West 403 464 38,000  Level Salt Lake Center
04:46PM 42.7956 -115.3508 304° West 401 461 38,000  Level Salt Lake Center
04:47PM 42.8547 -115.4708 304° West 397 457 38,000  Level Salt Lake Center
04:48PM 42.9136 -115.5903 304° West 398 458 38,000  Level Salt Lake Center
04:49PM 42.9808 -115.7261 304° West 389 448 38,000  Level Salt Lake Center
04:50PM 43.0392 -115.8439 304° West 390 449 38,000  Level Salt Lake Center
04:51PM 43.1069 -115.9858 303° West 393 452 38,000  Level Salt Lake Center
04:52PM 43.1661 -116.1078 304° West 398 458 38,000  Level Salt Lake Center
04:53PM 43.2231 -116.2253 304° West 388 447 38,000  Level Salt Lake Center
04:54PM 43.2903 -116.3661 303° West 394 453 38,000  Level Salt Lake Center
04:55PM 43.3478 -116.4864 303° West 392 451 38,000  Level Salt Lake Center
04:56PM 43.4144 -116.6269 303° West 393 452 38,000  Level Salt Lake Center
04:57PM 43.4717 -116.7475 303° West 393 452 38,000  Level Salt Lake Center
04:58PM 43.5297 -116.8692 303° West 397 457 38,000  Level Salt Lake Center
04:59PM 43.5969 -117.0119 303° West 398 458 38,000  Level Salt Lake Center
05:00PM 43.6536 -117.1344 303° West 396 456 38,000  Level Salt Lake Center
05:01PM 43.7111 -117.2575 303° West 397 457 38,000  Level Salt Lake Center
05:02PM 43.7783 -117.3997 303° West 396 456 38,000  Level Salt Lake Center
05:03PM 43.8347 -117.5225 303° West 395 455 38,000  Level Salt Lake Center
05:04PM 43.9006 -117.6669 302° West 396 456 38,000  Level Salt Lake Center
05:05PM 43.9578 -117.7903 303° West 397 457 38,000  Level Salt Lake Center
05:06PM 44.0139 -117.9133 302° West 395 455 38,000  Level Salt Lake Center
05:07PM 44.0794 -118.0586 302° West 397 457 38,000  Level Salt Lake Center
05:08PM 44.1358 -118.1817 303° West 393 452 38,000  Level Salt Lake Center
05:10PM 44.2014 -118.3294 302° West 400 460 38,000  Level Salt Lake Center
05:11PM 44.2572 -118.4525 302° West 397 457 38,000  Level Salt Lake Center
05:11PM 44.2808 -118.5047 302° West 399 459 38,000  Level Seattle Center
05:12PM 44.3386 -118.6353 302° West 396 456 38,000  Level Seattle Center
05:13PM 44.4089 -118.7917 302° West 399 459 38,000  Level Seattle Center
05:14PM 44.4664 -118.9231 302° West 398 458 38,000  Level Seattle Center
05:15PM 44.5236 -119.0533 302° West 395 455 38,000  Level Seattle Center
05:16PM 44.5817 -119.1889 301° West 398 458 38,000  Level Seattle Center
05:17PM 44.6397 -119.3189 302° West 400 460 38,000  Level Seattle Center
05:18PM 44.6969 -119.4522 301° West 399 459 38,000  Level Seattle Center
05:19PM 44.7528 -119.5853 301° West 397 457 38,000  Level Seattle Center
05:20PM 44.8114 -119.7200 302° West 401 461 38,000 -360 Level Seattle Center
05:21PM 44.8686 -119.8558 301° West 401 461 37,300 -900 Descending Seattle Center
05:22PM 44.9358 -120.0142 301° West 416 479 36,200 -840 Descending Seattle Center
05:23PM 44.9936 -120.1528 301° West 425 489 35,600 -1,380 Descending Seattle Center
05:24PM 45.0508 -120.2872 301° West 405 466 33,500 -2,100 Descending Seattle Center
05:25PM 45.1083 -120.4239 301° West 404 465 31,400 -1,920 Descending Seattle Center
05:26PM 45.1636 -120.5572 300° West 399 459 29,700 -1,860 Descending Seattle Center
05:27PM 45.2183 -120.6881 301° West 389 448 27,700 -1,920 Descending Seattle Center
05:28PM 45.2703 -120.8164 300° West 381 438 25,800 -1,860 Descending Seattle Center
05:29PM 45.3214 -120.9394 301° West 368 423 24,000 -1,860 Descending Seattle Center
05:30PM 45.3717 -121.0619 300° West 362 417 22,100 -1,860 Descending Seattle Center
05:31PM 45.4200 -121.1822 300° West 355 409 20,300 -1,920 Descending Seattle Center
05:32PM 45.4428 -121.3125 284° West 344 396 18,300 -2,820 Descending Seattle Center
05:33PM 45.4553 -121.4050 281° West 356 410 16,000 -2,760 Descending Seattle Center
05:33PM 45.4603 -121.4506 279° West 351 404 15,500 -1,740 Descending Seattle Center
05:34PM 45.4736 -121.5639 280° West 343 395 14,100 -1,800 Descending Seattle Center
05:34PM 45.4786 -121.6100 279° West 343 395 13,700 -1,560 Descending Seattle Center
05:35PM 45.4886 -121.6967 279° West 312 359 12,400 -1,920 Descending Seattle Center
05:35PM 45.4931 -121.7325 280° West 320 368 11,800 -1,680 Descending Seattle Center
05:36PM 45.5031 -121.8267 279° West 305 351 10,700 -1,500 Descending Seattle Center
05:36PM 45.5017 -121.8497 265° West 302 348 10,300 -1,800 Descending Seattle Center
05:37PM 45.5044 -121.9372 273° West 273 314 8,900 -1,920 Descending Seattle Center
05:37PM 45.5033 -121.9603 266° West 282 325 8,400 -1,920 Descending Seattle Center
05:38PM 45.5044 -122.0422 271° West 272 313 7,000 -1,920 Descending Seattle Center
05:38PM 45.5072 -122.0717 278° West 283 326 6,500 -1,440 Descending Seattle Center
05:39PM 45.5078 -122.1428 271° West 270 311 5,700 -1,140 Descending Seattle Center
05:39PM 45.5094 -122.1750 274° West 270 311 5,400 -300 Descending Seattle Center
05:40PM 45.4964 -122.2461 255° West 191 220 5,400 -660 Level Seattle Center
05:41PM 45.4853 -122.2969 253° West 166 191 4,400 -1,260 Descending Seattle Center
05:41PM 45.4839 -122.3206 265° West 179 206 3,900 -1,200 Descending Seattle Center
05:42PM 45.5028 -122.3608 304° West 181 208 3,200 -1,140 Descending Seattle Center
05:42PM 45.5108 -122.3828 298° West 177 204 2,800 -900 Descending Seattle Center
05:43PM 45.5253 -122.4192 300° West 168 193 2,300 -840 Descending Seattle Center
05:43PM 45.5336 -122.4375 303° West 167 192 2,000 -720 Descending Seattle Center
05:44PM 45.5531 -122.4872 299° West 157 181 1,300 -720 Descending Seattle Center
05:45PM 45.5672 -122.5286 296° West 138 159 700 -480 Descending Seattle Center
05:47PM 45.5897 -122.5822 301° West 146 168 400 -300 Descending Seattle Center